Latest Weather Observations for Winton

IDQ60801

Issued at 3:52 pm EST Monday 14 October 2019 (issued every 10 minutes, with the page automatically refreshed every 10 minutes)

About weather observations | Map of weather stations | Latest weather observations for QLD | Other Formats
Station Details ID: 037039 Name: WINTON AIRPORT Lat: -22.36 Lon: 143.08 Height: 192.2 m
Data from the previous 72 hours. | See also: Recent months at Winton
Date/Time
EST
Temp
°C
App
Temp
°C
Dew
Point
°C
Rel
Hum
%
Delta-T
°C
Wind Press
QNH
hPa
Press
MSL
hPa
Rain since
9am
mm
Dir  Spd
km/h
Gust
km/h
Spd
kts
Gust
kts
14/03:30pm 39.9 35.0 -0.5 8 20.6 W 15 28 8 15 1010.4 1009.3 0.0
14/03:00pm 40.7 35.9 0.0 8 21.0 WNW 15 30 8 16 1010.7 1009.5 0.0
14/02:30pm 39.3 33.9 -1.0 8 20.3 NW 17 26 9 14 1011.2 1010.0 0.0
14/02:00pm 39.3 33.8 0.6 9 20.0 WNW 19 32 10 17 1011.5 1010.3 0.0
14/01:30pm 39.1 34.3 0.5 9 19.9 NW 15 32 8 17 1012.0 1010.8 0.0
14/01:00pm 39.1 33.8 1.9 10 19.6 NW 19 32 10 17 1012.5 1011.3 0.0
14/12:30pm 38.2 32.6 1.3 10 19.1 NNW 20 32 11 17 1013.1 1012.0 0.0
14/12:00pm 37.8 31.4 1.0 10 18.9 NW 24 33 13 18 1013.6 1012.5 0.0
14/11:30am 37.4 31.0 0.7 10 18.8 N 24 32 13 17 1014.1 1013.0 0.0
14/11:00am 36.2 29.4 1.1 11 17.9 NNW 26 37 14 20 1014.4 1013.3 0.0
14/10:30am 35.3 28.4 2.7 13 17.0 NNW 28 37 15 20 1014.7 1013.6 0.0
14/10:00am 34.7 27.9 3.3 14 16.5 NNW 28 35 15 19 1014.7 1013.6 0.0
14/09:30am 33.5 26.1 4.2 16 15.5 NNW 32 39 17 21 1014.9 1013.8 0.0
14/09:00am 31.9 23.6 2.1 15 15.1 N 35 44 19 24 1014.7 1013.6 0.0
14/08:30am 31.2 23.2 1.5 15 14.8 N 33 44 18 24 1014.7 1013.6 0.0
14/08:00am 29.1 22.7 0.7 16 13.8 N 24 35 13 19 1014.4 1013.3 0.0
14/07:30am 26.8 20.9 -2.0 15 13.1 NNE 19 24 10 13 1013.8 1012.7 0.0
14/07:00am 24.3 18.7 -3.1 16 11.9 NNE 17 24 9 13 1013.3 1012.2 0.0
14/06:56am 24.0 18.4 -3.3 16 11.8 NNE 17 22 9 12 1013.3 1012.2 0.0
14/06:30am 19.0 13.5 -5.8 18 9.7 NNE 15 19 8 10 1013.1 1012.0 0.0
14/06:00am 16.6 11.3 -7.1 19 8.8 NE 13 15 7 8 1012.8 1011.6 0.0
14/05:30am 16.4 11.5 -7.3 19 8.8 NE 11 13 6 7 1012.5 1011.3 0.0
14/05:00am 16.9 11.6 -7.5 18 9.0 NE 13 13 7 7 1012.1 1010.9 0.0
14/04:30am 17.4 12.0 -7.9 17 9.4 NE 13 13 7 7 1011.6 1010.4 0.0
14/04:00am 20.3 14.3 -7.1 15 10.6 NNE 17 20 9 11 1011.4 1010.2 0.0
14/03:30am 20.4 14.4 -7.1 15 10.7 NNE 17 20 9 11 1011.4 1010.2 0.0
14/03:00am 18.0 12.7 -7.4 17 9.6 NE 13 15 7 8 1011.6 1010.4 0.0
14/02:30am 18.6 12.9 -7.7 16 9.9 NE 15 15 8 8 1011.8 1010.6 0.0
14/02:00am 18.4 13.1 -7.8 16 9.8 NE 13 15 7 8 1012.0 1010.8 0.0
14/01:30am 19.3 13.9 -7.9 15 10.3 NE 13 15 7 8 1012.4 1011.2 0.0
14/01:00am 20.4 14.7 -8.0 14 10.8 NE 15 15 8 8 1012.5 1011.3 0.0
14/12:30am 20.4 14.7 -8.0 14 10.8 NNE 15 17 8 9 1012.8 1011.6 0.0
14/12:00am 20.2 14.8 -8.1 14 10.8 NE 13 13 7 7 1013.0 1011.8 0.0
 
Date/Time
EST
Temp
°C
App
Temp
°C
Dew
Point
°C
Rel
Hum
%
Delta-T
°C
Wind Press
QNH
hPa
Press
MSL
hPa
Rain since
9am
mm
Dir  Spd
km/h
Gust
km/h
Spd
kts
Gust
kts
13/11:30pm 20.2 15.2 -8.1 14 10.7 ENE 11 13 6 7 1013.2 1012.1 0.0
13/11:00pm 21.5 17.4 -7.1 14 11.2 E 7 9 4 5 1013.2 1012.1 0.0
13/10:30pm 23.0 18.4 -7.9 12 12.1 ENE 9 13 5 7 1013.4 1012.3 0.0
13/10:00pm 23.8 18.9 -7.3 12 12.5 NE 11 11 6 6 1013.2 1012.1 0.0
13/09:30pm 24.7 19.7 -7.7 11 13.0 NE 11 13 6 7 1013.1 1012.0 0.0
13/09:00pm 25.7 21.1 -8.2 10 13.6 ENE 9 9 5 5 1012.9 1011.7 0.0
13/08:30pm 26.0 21.0 -7.9 10 13.7 ENE 11 13 6 7 1012.7 1011.5 0.0
13/08:00pm 28.0 23.0 -7.8 9 14.8 E 11 11 6 6 1012.5 1011.3 0.0
13/07:30pm 29.4 24.4 -8.2 8 15.6 E 11 13 6 7 1012.3 1011.1 0.0
13/07:00pm 31.5 27.4 -6.7 8 16.6 E 7 9 4 5 1011.9 1010.7 0.0
13/06:30pm 32.9 28.7 -7.4 7 17.5 E 7 9 4 5 1011.6 1010.4 0.0
13/06:00pm 35.8 32.6 -7.3 6 19.2 E 2 6 1 3 1011.4 1010.2 0.0
13/05:30pm 36.4 31.9 -6.9 6 19.5 SE 9 17 5 9 1011.1 1009.9 0.0
13/05:00pm 37.4 33.9 -6.2 6 20.0 WSW 4 7 2 4 1011.0 1009.8 0.0
13/04:30pm 37.5 33.1 -6.1 6 20.0 SSE 9 15 5 8 1011.0 1009.8 0.0
13/04:00pm 37.5 33.6 -6.1 6 20.1 NNE 6 13 3 7 1011.0 1009.8 0.0
13/03:30pm 37.6 32.8 -6.0 6 20.1 SSW 11 20 6 11 1011.2 1010.0 0.0
13/03:00pm 37.6 33.8 -6.0 6 20.1 N 6 13 3 7 1011.4 1010.2 0.0
13/02:30pm 37.3 33.2 -6.3 6 19.9 E 7 19 4 10 1011.8 1010.6 0.0
13/02:00pm 36.9 31.7 -6.5 6 19.7 ENE 13 33 7 18 1012.1 1010.9 0.0
13/01:30pm 36.5 32.4 -6.8 6 19.5 ESE 7 17 4 9 1012.6 1011.4 0.0
13/01:00pm 37.6 33.8 -6.0 6 20.1 NNE 6 20 3 11 1013.1 1012.0 0.0
13/12:30pm 37.0 32.2 -6.5 6 19.8 ESE 11 20 6 11 1013.6 1012.5 0.0
13/12:00pm 35.8 30.9 -7.3 6 19.2 NNE 11 28 6 15 1014.1 1013.0 0.0
13/11:30am 35.5 30.2 -7.5 6 19.0 ENE 13 22 7 12 1014.3 1013.2 0.0
13/11:00am 34.9 29.3 -6.0 7 18.5 ENE 15 26 8 14 1014.6 1013.5 0.0
13/10:30am 34.5 29.3 -6.3 7 18.3 ENE 13 22 7 12 1014.8 1013.7 0.0
13/10:00am 33.2 27.4 -9.2 6 17.9 NE 15 24 8 13 1015.2 1014.1 0.0
13/09:30am 32.2 25.4 -9.9 6 17.4 NE 20 26 11 14 1015.4 1014.3 0.0
13/09:00am 30.2 24.7 -9.4 7 16.2 NE 13 19 7 10 1015.4 1014.3 0.0
13/08:30am 27.4 21.1 -9.7 8 14.7 ENE 17 22 9 12 1015.4 1014.3 0.0
13/08:00am 23.9 18.0 -9.5 10 12.8 ENE 15 20 8 11 1015.1 1014.0 0.0
13/07:30am 20.9 15.0 -9.5 12 11.3 NE 15 20 8 11 1014.9 1013.8 0.0
13/07:00am 17.3 12.6 -8.7 16 9.4 ENE 9 13 5 7 1014.5 1013.4 0.0
13/06:30am 13.9 8.9 -8.0 21 7.7 NE 11 13 6 7 1014.1 1013.0 0.0
13/06:00am 12.2 7.1 -8.9 22 7.2 ENE 11 11 6 6 1013.9 1012.8 0.0
13/05:30am 12.3 7.6 -9.4 21 7.3 ENE 9 11 5 6 1013.7 1012.6 0.0
13/05:00am 13.7 7.5 -9.5 19 7.9 NE 17 19 9 10 1013.0 1011.8 0.0
13/04:30am 13.2 8.2 -8.6 21 7.5 NE 11 13 6 7 1013.0 1011.8 0.0
13/04:00am 13.4 8.4 -7.9 22 7.5 ENE 11 13 6 7 1012.7 1011.5 0.0
13/03:30am 13.5 8.5 -8.4 21 7.6 ENE 11 11 6 6 1012.8 1011.6 0.0
13/03:00am 14.3 9.7 -7.7 21 7.9 E 9 9 5 5 1012.7 1011.5 0.0
13/02:30am 14.4 9.8 -8.2 20 8.0 E 9 11 5 6 1012.8 1011.6 0.0
13/02:00am 14.7 9.7 -8.0 20 8.1 E 11 11 6 6 1013.1 1012.0 0.0
13/01:30am 15.1 10.4 -9.0 18 8.5 E 9 9 5 5 1013.4 1012.3 0.0
13/01:00am 16.2 11.5 -8.8 17 8.9 ENE 9 9 5 5 1013.5 1012.4 0.0
13/12:30am 17.1 12.8 -8.9 16 9.4 ENE 7 7 4 4 1013.6 1012.5 0.0
13/12:00am 17.7 13.4 -9.2 15 9.7 ENE 7 9 4 5 1013.8 1012.7 0.0
 
Date/Time
EST
Temp
°C
App
Temp
°C
Dew
Point
°C
Rel
Hum
%
Delta-T
°C
Wind Press
QNH
hPa
Press
MSL
hPa
Rain since
9am
mm
Dir  Spd
km/h
Gust
km/h
Spd
kts
Gust
kts
12/11:30pm 18.1 13.0 -8.9 15 9.9 NE 11 13 6 7 1013.9 1012.8 0.0
12/11:00pm 18.9 13.9 -8.3 15 10.1 NE 11 13 6 7 1013.9 1012.8 0.0
12/10:30pm 19.9 15.3 -8.4 14 10.6 NE 9 9 5 5 1013.8 1012.7 0.0
12/10:00pm 20.4 16.2 -8.0 14 10.8 ENE 7 9 4 5 1013.8 1012.7 0.0
12/09:30pm 22.0 17.7 -8.7 12 11.7 E 7 9 4 5 1013.7 1012.6 0.0
12/09:00pm 22.7 18.5 -8.1 12 12.0 E 7 7 4 4 1013.4 1012.3 0.0
12/08:30pm 23.1 18.1 -7.8 12 12.2 E 11 11 6 6 1013.2 1012.1 0.0
12/08:00pm 24.2 19.6 -8.1 11 12.8 E 9 11 5 6 1012.6 1011.4 0.0
12/07:30pm 25.5 20.9 -8.3 10 13.5 E 9 11 5 6 1012.2 1011.0 0.0
12/07:00pm 26.6 21.7 -7.5 10 14.0 E 11 13 6 7 1011.8 1010.6 0.0
12/06:30pm 28.5 23.4 -8.9 8 15.2 ESE 11 15 6 8 1011.4 1010.2 0.0
12/06:00pm 31.3 26.4 -6.8 8 16.5 SE 11 17 6 9 1011.0 1009.8 0.0
12/05:30pm 32.2 27.0 -6.2 8 16.9 SE 13 19 7 10 1010.6 1009.4 0.0
12/05:00pm 32.2 27.2 -7.9 7 17.2 S 11 17 6 9 1010.2 1009.1 0.0
12/04:30pm 33.0 28.8 -7.3 7 17.5 ESE 7 24 4 13 1010.1 1009.0 0.0
12/04:00pm 32.5 27.2 -7.7 7 17.3 S 13 24 7 13 1009.9 1008.8 0.0
12/03:30pm 33.2 26.8 -7.2 7 17.6 SSE 19 30 10 16 1010.2 1009.1 0.0
12/03:00pm 32.5 26.4 -7.7 7 17.3 SE 17 30 9 16 1010.4 1009.3 0.0
12/02:30pm 32.6 26.9 -7.6 7 17.4 S 15 28 8 15 1011.0 1009.8 0.0
12/02:00pm 32.5 26.4 -7.7 7 17.3 S 17 30 9 16 1011.4 1010.2 0.0
12/01:30pm 32.2 26.8 -7.9 7 17.2 SE 13 33 7 18 1011.8 1010.6 0.0
12/01:00pm 31.2 25.8 -8.6 7 16.7 S 13 28 7 15 1012.1 1010.9 0.0
12/12:30pm 31.6 26.4 -6.6 8 16.6 SE 13 28 7 15 1012.5 1011.3 0.0
12/12:00pm 31.1 26.1 -8.7 7 16.7 ESE 11 19 6 10 1013.0 1011.8 0.0
12/11:30am 30.0 24.3 -7.8 8 15.9 ESE 15 30 8 16 1013.5 1012.4 0.0
12/11:00am 29.8 23.3 -8.0 8 15.8 SE 19 30 10 16 1013.9 1012.8 0.0
12/10:30am 29.2 22.8 -6.9 9 15.3 SE 19 32 10 17 1014.3 1013.2 0.0
12/10:00am 29.1 22.7 -7.0 9 15.3 SE 19 28 10 15 1014.6 1013.5 0.0
12/09:30am 28.6 22.2 -7.3 9 15.0 ESE 19 30 10 16 1014.6 1013.5 0.0
12/09:00am 26.7 20.1 -7.4 10 14.0 ESE 20 30 11 16 1014.6 1013.5 0.0
12/08:30am 24.9 17.5 -7.5 11 13.1 E 24 30 13 16 1014.6 1013.5 0.0
12/08:00am 23.0 16.3 -7.9 12 12.1 E 20 33 11 18 1014.4 1013.3 0.0
12/07:30am 20.3 14.2 -8.0 14 10.8 E 17 26 9 14 1014.1 1013.0 0.0
12/07:00am 17.4 12.7 -8.6 16 9.5 E 9 13 5 7 1013.8 1012.7 0.0
12/06:30am 14.1 9.1 -8.5 20 7.9 NE 11 13 6 7 1013.3 1012.2 0.0
12/06:00am 13.0 7.9 -8.8 21 7.5 E 11 15 6 8 1013.1 1012.0 0.0
12/05:30am 13.0 7.9 -8.8 21 7.5 E 11 13 6 7 1013.1 1012.0 0.0
12/05:00am 14.0 9.0 -7.9 21 7.8 ESE 11 13 6 7 1012.9 1011.7 0.0
12/04:30am 13.7 8.4 -7.6 22 7.6 E 13 15 7 8 1012.3 1011.1 0.0
12/04:00am 13.6 9.9 -8.9 20 7.8 SE 4 9 2 5 1012.1 1010.9 0.0
12/03:30am 15.7 11.2 -7.2 20 8.4 S 9 9 5 5 1012.1 1010.9 0.0
12/03:00am 15.4 11.7 -8.1 19 8.5 S 4 6 2 3 1012.0 1010.8 0.0
12/02:30am 17.2 13.2 -8.0 17 9.3 S 6 7 3 4 1012.2 1011.0 0.0
12/02:00am 17.1 13.1 -8.1 17 9.2 SSW 6 6 3 3 1012.4 1011.2 0.0
12/01:30am 16.4 12.4 -7.9 18 8.9 S 6 7 3 4 1012.7 1011.5 0.0
12/01:00am 16.9 13.3 -7.5 18 9.0 S 4 6 2 3 1012.9 1011.7 0.0
12/12:30am 15.9 10.9 -8.4 18 8.7 SSW 11 11 6 6 1013.1 1012.0 0.0
12/12:00am 17.3 13.0 -8.7 16 9.4 SSW 7 9 4 5 1013.3 1012.2 0.0
 
Date/Time
EST
Temp
°C
App
Temp
°C
Dew
Point
°C
Rel
Hum
%
Delta-T
°C
Wind Press
QNH
hPa
Press
MSL
hPa
Rain since
9am
mm
Dir  Spd
km/h
Gust
km/h
Spd
kts
Gust
kts
11/11:30pm 18.0 13.3 -9.0 15 9.8 SSW 9 9 5 5 1013.2 1012.1 0.0
11/11:00pm 18.4 14.1 -9.5 14 10.1 SSW 7 9 4 5 1013.3 1012.2 0.0
11/10:30pm 18.9 14.6 -9.1 14 10.3 S 7 9 4 5 1013.3 1012.2 0.0
11/10:00pm 18.9 14.8 -9.1 14 10.3 S 6 6 3 3 1013.2 1012.1 0.0
11/09:30pm 20.3 15.2 -10.0 12 11.1 SSW 11 13 6 7 1013.2 1012.1 0.0
11/09:00pm 21.5 16.7 -10.2 11 11.7 SSW 9 9 5 5 1012.9 1011.7 0.0
11/08:30pm 22.2 17.0 -10.8 10 12.2 SW 11 13 6 7 1012.6 1011.4 0.0
11/08:00pm 22.1 16.9 -10.9 10 12.1 SSW 11 11 6 6 1012.3 1011.1 0.0
11/07:30pm 23.0 18.1 -11.5 9 12.6 SSW 9 11 5 6 1012.0 1010.8 0.0
11/07:00pm 24.2 18.5 -12.1 8 13.4 SSW 13 19 7 10 1011.6 1010.4 0.0
11/06:30pm 27.2 21.2 -11.5 7 14.8 SSW 15 19 8 10 1011.2 1010.0 0.0
11/06:00pm 29.9 23.1 -11.5 6 16.3 SSW 19 24 10 13 1010.7 1009.5 0.0
11/05:30pm 30.8 24.7 -13.1 5 17.0 SW 15 24 8 13 1010.2 1009.1 0.0
11/05:00pm 31.4 24.9 -12.7 5 17.3 SW 17 24 9 13 1010.0 1008.9 0.0
11/04:30pm 31.4 25.7 -12.7 5 17.3 SW 13 19 7 10 1010.0 1008.9 0.0
11/04:00pm 32.1 26.4 -12.2 5 17.7 WSW 13 43 7 23 1010.2 1009.1 0.0

Other formats

Comma delimited format used in spreadsheet applications
http://www.bom.gov.au/fwo/IDQ60801/IDQ60801.94342.axf

JavaScript Object Notation format (JSON) in row-major order
http://www.bom.gov.au/fwo/IDQ60801/IDQ60801.94342.json

Data quality

Most of these data are generated automatically and are frequently updated. Quality checks on data are not normally performed. It is possible for incorrect values to appear. Refer to information at About Latest Weather Observations and please check the disclaimer before using these data.